Terminal Aerodrome Forecast
Issued by NWS Dallas/Fort Worth, TX

Home | Current Version | Previous Version | Text Only | Print | Product List | Glossary On
Versions: 1 2 3 4 5 6 7 8 9 10 11 12 13 14 15 16 17 18 19 20 21 22 23 24 25 26 27 28 29 30 31 32 33 34
000
FTUS44 KFWD 060907 AAC
TAFACT
TAF AMD
KACT 060907Z 0609/0706 19007KT 6SM BR SCT003
      TEMPO 0609/0612 2SM BR OVC003
     FM061200 22006KT 2SM BR OVC003
      TEMPO 0612/0615 1/2SM FG OVC002
     FM061500 34008KT 5SM BR OVC015
     FM061900 36009KT P6SM OVC021
     FM062300 01008KT P6SM BKN040=

USA.gov is the U.S. government's official web portal to all federal, state and local government web resources and services.